Greenville Spartanburg International Airport Greenville US
ICAO: KGSP
IATA: GSP
Category: Large
Scheduled Services: Yes

Elevation: 964 ft
TransAlt. 18000 ft.

Airport Communications:
GREER APP/DEP:120.6
ATIS:134.25
CTAF:120.1
GREER GND:121.9
GREER TWR:120.1
UNICOM:122.95

KGSP Zoom In..

If you have problems with the map follow the link
https://www.worldairports.se/pages/airport.php?
ICAO=KGSP

Runways:

(A) RW 04 length 11001 ft width 150 ft
ILS 109.30 / hdg 38

(B) RW 22 length 11001 ft width 150 ft
ILS 110.70 / hdg 218

Location; KGSP
Day. 21 / Time. 05.53 Zulu
* Altimeter: 29.98
* Temperature: 11° c. 51.8°f.
* Wind from: 360° Speed 07 kn.
Dewpoint: 04° c.
Visibility: 10 Statute Miles.
Clouds: Clear (automated report).

KGSP 210553Z AUTO 36007KT 10SM CLR 11/04 A2998 RMK AO2 SLP145 T01060039 10161 20094 53010


Wind From 360°
Speed 07 kn.

 
 
jpsmedia.com for Web Design worldairports.se 2018   terms of use